Findlay Airport
KFDY : now visible

Airfield :











YOU CAN JOIN US ON...

 
LOGIN :

Register | Disclaimer

   EN    FR    IT 

 









Legend :    VFR   Marginal VFR   IFR   Intensive IFR   Very Intensive IFR
Visi :
Ceiling :
>= 8 km
>= 3000ft
5 to 8 km
1000 to 3000 ft
1500m to 5 km
500 to 1000 ft
800 to 1500m
200 to 500 ft
< 800m
< 200 ft
Symbols :   Thunderstorms  Fog  Heavy snow  Heavy precipitations  Wind > 20 kt






- Airport Elevation : 813 ft


KFDY - Findlay

CURRENT METAR :
  • 272353Z AUTO 26007KT 4SM BR OVC014 02/00 A2995 RMK AO2 SLP144 T00170000 10022 20017 53011

EXPIRED METARs :
  • 272345Z AUTO 26007KT 7SM OVC014 02/M01 A2994 RMK AO2 T00171006
  • 272307Z AUTO 29007KT 10SM OVC015 02/M01 A2993 RMK AO2 T00221006
  • 272253Z AUTO 29007KT 10SM OVC013 02/M01 A2993 RMK AO2 SLP139 T00221006
  • 272233Z AUTO 28005KT 10SM OVC014 02/M01 A2992 RMK AO2 T00221006
  • 272153Z AUTO 29007KT 10SM OVC015 02/M01 A2991 RMK AO2 SLP133 T00221006

TAF KFDY
Valid from the 28 at 00:00 until the 29 at 00:00 UTC


272334Z 2800/2824 29006KT P6SM OVC012
TEMPO 2808/2812 BKN008 OVC012
FM282000 30005KT P6SM OVC020



MET'MAP, your aeronautical weather chart ! - Copyright ORBIFLY December 2007 - Disclaimer

ORBIFLY MET'MAP TEAM :

Programming & Development : Alexandra Zaïnal
Concept & original design : Baudouin d'Aumeries
Assistance for programming : Marc-Olivier Méhu
Technical & hardware support : Manuel Goepfert

Contact : metmap@orbifly.com




SOURCES & CREDITS :

   NOAA       Earth
Advisory